sensor_id;sensor_type;location;lat;lon;timestamp;pressure;altitude;pressure_sealevel;temperature;humidity
54948;BME280;41113;41.882;12.530;2023-07-09T00:02:22;101337.69;;;27.50;63.15
54948;BME280;41113;41.882;12.530;2023-07-09T00:04:48;101344.59;;;27.41;63.10
54948;BME280;41113;41.882;12.530;2023-07-09T00:07:27;101345.53;;;27.35;64.19
54948;BME280;41113;41.882;12.530;2023-07-09T00:09:54;101336.31;;;27.23;63.73
54948;BME280;41113;41.882;12.530;2023-07-09T00:12:20;101348.81;;;27.07;64.85
54948;BME280;41113;41.882;12.530;2023-07-09T00:14:46;101339.00;;;27.11;63.92
54948;BME280;41113;41.882;12.530;2023-07-09T00:17:15;101341.69;;;27.00;65.43
54948;BME280;41113;41.882;12.530;2023-07-09T00:19:43;101329.84;;;26.92;64.87
54948;BME280;41113;41.882;12.530;2023-07-09T00:22:19;101335.13;;;27.01;64.75
54948;BME280;41113;41.882;12.530;2023-07-09T00:24:47;101334.34;;;27.12;64.46
54948;BME280;41113;41.882;12.530;2023-07-09T00:27:13;101335.84;;;27.26;63.26
54948;BME280;41113;41.882;12.530;2023-07-09T00:29:41;101338.94;;;27.18;63.62
54948;BME280;41113;41.882;12.530;2023-07-09T00:32:14;101328.75;;;27.18;64.17
54948;BME280;41113;41.882;12.530;2023-07-09T00:34:44;101340.63;;;27.19;63.80
54948;BME280;41113;41.882;12.530;2023-07-09T00:37:18;101340.31;;;27.09;64.05
54948;BME280;41113;41.882;12.530;2023-07-09T00:39:45;101341.16;;;27.09;63.71
54948;BME280;41113;41.882;12.530;2023-07-09T00:42:16;101340.31;;;27.09;64.21
54948;BME280;41113;41.882;12.530;2023-07-09T00:44:44;101335.25;;;27.06;63.63
54948;BME280;41113;41.882;12.530;2023-07-09T00:53:11;101348.59;;;26.84;65.08
54948;BME280;41113;41.882;12.530;2023-07-09T00:55:40;101350.34;;;26.78;65.31
54948;BME280;41113;41.882;12.530;2023-07-09T00:58:08;101344.84;;;26.78;65.77
54948;BME280;41113;41.882;12.530;2023-07-09T01:00:41;101352.50;;;26.76;65.53
54948;BME280;41113;41.882;12.530;2023-07-09T01:05:54;101357.66;;;26.66;65.47
54948;BME280;41113;41.882;12.530;2023-07-09T01:08:23;101343.28;;;26.64;65.69
54948;BME280;41113;41.882;12.530;2023-07-09T01:10:49;101344.53;;;26.68;65.15
54948;BME280;41113;41.882;12.530;2023-07-09T01:13:15;101343.63;;;26.74;65.16
54948;BME280;41113;41.882;12.530;2023-07-09T01:15:41;101339.09;;;26.80;64.61
54948;BME280;41113;41.882;12.530;2023-07-09T01:18:07;101338.56;;;26.71;65.02
54948;BME280;41113;41.882;12.530;2023-07-09T01:20:33;101343.28;;;26.64;65.78
54948;BME280;41113;41.882;12.530;2023-07-09T01:22:59;101353.00;;;26.66;65.41
54948;BME280;41113;41.882;12.530;2023-07-09T01:25:26;101356.78;;;26.72;65.29
54948;BME280;41113;41.882;12.530;2023-07-09T01:27:53;101347.06;;;26.70;65.53
54948;BME280;41113;41.882;12.530;2023-07-09T01:30:20;101342.84;;;26.67;65.90
54948;BME280;41113;41.882;12.530;2023-07-09T01:32:48;101348.78;;;26.64;66.11
54948;BME280;41113;41.882;12.530;2023-07-09T01:35:16;101347.16;;;26.56;66.05
54948;BME280;41113;41.882;12.530;2023-07-09T01:37:42;101356.09;;;26.52;66.81
54948;BME280;41113;41.882;12.530;2023-07-09T01:40:10;101352.91;;;26.55;66.37
54948;BME280;41113;41.882;12.530;2023-07-09T01:42:37;101344.94;;;26.47;66.74
54948;BME280;41113;41.882;12.530;2023-07-09T01:45:05;101347.84;;;26.52;66.15
54948;BME280;41113;41.882;12.530;2023-07-09T01:47:30;101348.06;;;26.50;66.72
54948;BME280;41113;41.882;12.530;2023-07-09T01:49:57;101349.44;;;26.41;66.85
54948;BME280;41113;41.882;12.530;2023-07-09T01:52:29;101342.69;;;26.37;67.42
54948;BME280;41113;41.882;12.530;2023-07-09T01:54:56;101343.53;;;26.38;67.01
54948;BME280;41113;41.882;12.530;2023-07-09T01:57:25;101351.97;;;26.43;67.00
54948;BME280;41113;41.882;12.530;2023-07-09T01:59:54;101346.47;;;26.61;65.92
54948;BME280;41113;41.882;12.530;2023-07-09T02:02:21;101335.69;;;26.59;66.03
54948;BME280;41113;41.882;12.530;2023-07-09T02:04:52;101339.44;;;26.65;66.31
54948;BME280;41113;41.882;12.530;2023-07-09T02:07:18;101328.09;;;26.55;66.32
54948;BME280;41113;41.882;12.530;2023-07-09T02:09:45;101337.44;;;26.54;66.07
54948;BME280;41113;41.882;12.530;2023-07-09T02:12:11;101344.03;;;26.53;66.57
54948;BME280;41113;41.882;12.530;2023-07-09T02:14:37;101344.63;;;26.55;66.38
54948;BME280;41113;41.882;12.530;2023-07-09T02:17:03;101347.63;;;26.53;66.13
54948;BME280;41113;41.882;12.530;2023-07-09T02:19:29;101340.19;;;26.54;66.57
54948;BME280;41113;41.882;12.530;2023-07-09T02:21:56;101341.44;;;26.58;66.71
54948;BME280;41113;41.882;12.530;2023-07-09T02:24:22;101337.72;;;26.71;65.60
54948;BME280;41113;41.882;12.530;2023-07-09T02:26:52;101338.00;;;26.62;66.16
54948;BME280;41113;41.882;12.530;2023-07-09T02:29:18;101348.06;;;26.50;67.37
54948;BME280;41113;41.882;12.530;2023-07-09T02:31:44;101342.94;;;26.54;66.61
54948;BME280;41113;41.882;12.530;2023-07-09T02:34:10;101343.13;;;26.59;66.69
54948;BME280;41113;41.882;12.530;2023-07-09T02:36:35;101348.47;;;26.54;67.22
54948;BME280;41113;41.882;12.530;2023-07-09T02:39:00;101351.84;;;26.56;67.26
54948;BME280;41113;41.882;12.530;2023-07-09T02:41:26;101355.50;;;26.50;67.24
54948;BME280;41113;41.882;12.530;2023-07-09T02:43:51;101354.09;;;26.41;67.95
54948;BME280;41113;41.882;12.530;2023-07-09T02:46:16;101352.53;;;26.20;69.04
54948;BME280;41113;41.882;12.530;2023-07-09T02:48:42;101360.44;;;26.10;70.03
54948;BME280;41113;41.882;12.530;2023-07-09T02:51:08;101361.44;;;26.15;68.89
54948;BME280;41113;41.882;12.530;2023-07-09T02:53:33;101349.53;;;26.21;68.43
54948;BME280;41113;41.882;12.530;2023-07-09T02:55:58;101368.19;;;26.19;68.94
54948;BME280;41113;41.882;12.530;2023-07-09T02:58:24;101352.41;;;26.08;70.07
54948;BME280;41113;41.882;12.530;2023-07-09T03:00:49;101356.22;;;26.07;69.49
54948;BME280;41113;41.882;12.530;2023-07-09T03:03:21;101355.63;;;25.98;70.79
54948;BME280;41113;41.882;12.530;2023-07-09T03:05:47;101367.28;;;25.94;70.29
54948;BME280;41113;41.882;12.530;2023-07-09T03:08:13;101356.50;;;25.92;69.99
54948;BME280;41113;41.882;12.530;2023-07-09T03:10:40;101349.09;;;25.93;70.25
54948;BME280;41113;41.882;12.530;2023-07-09T03:13:05;101363.69;;;25.93;70.57
54948;BME280;41113;41.882;12.530;2023-07-09T03:15:30;101354.59;;;25.93;70.45
54948;BME280;41113;41.882;12.530;2023-07-09T03:17:56;101361.97;;;25.99;69.91
54948;BME280;41113;41.882;12.530;2023-07-09T03:20:21;101359.41;;;26.04;69.45
54948;BME280;41113;41.882;12.530;2023-07-09T03:22:47;101371.28;;;26.04;69.57
54948;BME280;41113;41.882;12.530;2023-07-09T03:25:12;101375.09;;;25.97;70.14
54948;BME280;41113;41.882;12.530;2023-07-09T03:27:37;101374.34;;;25.83;70.67
54948;BME280;41113;41.882;12.530;2023-07-09T03:30:03;101376.25;;;25.83;70.94
54948;BME280;41113;41.882;12.530;2023-07-09T03:32:29;101381.16;;;25.81;70.39
54948;BME280;41113;41.882;12.530;2023-07-09T03:34:54;101378.53;;;25.92;69.63
54948;BME280;41113;41.882;12.530;2023-07-09T03:37:19;101378.88;;;26.09;69.14
54948;BME280;41113;41.882;12.530;2023-07-09T03:39:45;101379.16;;;25.94;69.43
54948;BME280;41113;41.882;12.530;2023-07-09T03:42:11;101391.31;;;25.80;70.81
54948;BME280;41113;41.882;12.530;2023-07-09T03:44:36;101385.75;;;25.87;70.50
54948;BME280;41113;41.882;12.530;2023-07-09T03:47:03;101377.72;;;25.85;70.74
54948;BME280;41113;41.882;12.530;2023-07-09T03:49:28;101376.09;;;25.78;70.98
54948;BME280;41113;41.882;12.530;2023-07-09T03:51:54;101376.88;;;25.85;70.48
54948;BME280;41113;41.882;12.530;2023-07-09T03:54:19;101387.13;;;25.71;71.00
54948;BME280;41113;41.882;12.530;2023-07-09T03:56:44;101387.97;;;25.58;72.14
54948;BME280;41113;41.882;12.530;2023-07-09T03:59:10;101393.03;;;25.61;71.36
54948;BME280;41113;41.882;12.530;2023-07-09T04:01:35;101395.56;;;25.63;71.19
54948;BME280;41113;41.882;12.530;2023-07-09T04:04:00;101398.13;;;25.71;70.93
54948;BME280;41113;41.882;12.530;2023-07-09T04:06:26;101394.19;;;25.92;69.92
54948;BME280;41113;41.882;12.530;2023-07-09T04:08:51;101395.81;;;26.06;69.75
54948;BME280;41113;41.882;12.530;2023-07-09T04:11:16;101396.56;;;26.20;69.19
54948;BME280;41113;41.882;12.530;2023-07-09T04:13:42;101404.00;;;26.51;67.70
54948;BME280;41113;41.882;12.530;2023-07-09T04:16:07;101402.56;;;26.73;66.97
54948;BME280;41113;41.882;12.530;2023-07-09T04:18:32;101401.28;;;27.01;65.83
54948;BME280;41113;41.882;12.530;2023-07-09T04:20:58;101404.81;;;27.08;65.65
54948;BME280;41113;41.882;12.530;2023-07-09T04:23:23;101392.34;;;27.42;64.47
54948;BME280;41113;41.882;12.530;2023-07-09T04:25:49;101394.84;;;27.98;62.06
54948;BME280;41113;41.882;12.530;2023-07-09T04:28:15;101387.63;;;27.60;63.33
54948;BME280;41113;41.882;12.530;2023-07-09T04:30:48;101388.94;;;27.58;63.54
54948;BME280;41113;41.882;12.530;2023-07-09T04:33:14;101391.03;;;28.23;61.45
54948;BME280;41113;41.882;12.530;2023-07-09T04:35:43;101386.69;;;28.45;60.13
54948;BME280;41113;41.882;12.530;2023-07-09T04:38:08;101385.09;;;28.26;60.49
54948;BME280;41113;41.882;12.530;2023-07-09T04:40:34;101393.91;;;28.46;60.18
54948;BME280;41113;41.882;12.530;2023-07-09T04:42:59;101394.78;;;29.52;57.82
54948;BME280;41113;41.882;12.530;2023-07-09T04:45:24;101408.59;;;29.92;55.42
54948;BME280;41113;41.882;12.530;2023-07-09T04:47:50;101408.19;;;30.12;55.55
54948;BME280;41113;41.882;12.530;2023-07-09T04:50:15;101402.25;;;30.20;55.20
54948;BME280;41113;41.882;12.530;2023-07-09T04:52:40;101407.28;;;31.40;52.51
54948;BME280;41113;41.882;12.530;2023-07-09T04:55:06;101403.28;;;31.31;52.39
54948;BME280;41113;41.882;12.530;2023-07-09T04:57:33;101390.59;;;31.57;50.69
54948;BME280;41113;41.882;12.530;2023-07-09T04:59:59;101402.66;;;31.68;50.98
54948;BME280;41113;41.882;12.530;2023-07-09T05:02:24;101409.38;;;30.94;50.81
54948;BME280;41113;41.882;12.530;2023-07-09T05:04:50;101404.69;;;30.78;51.23
54948;BME280;41113;41.882;12.530;2023-07-09T05:07:15;101406.06;;;30.47;52.19
54948;BME280;41113;41.882;12.530;2023-07-09T05:09:41;101405.44;;;30.74;51.90
54948;BME280;41113;41.882;12.530;2023-07-09T05:12:07;101402.28;;;31.20;51.02
54948;BME280;41113;41.882;12.530;2023-07-09T05:14:33;101399.16;;;31.34;50.28
54948;BME280;41113;41.882;12.530;2023-07-09T05:16:58;101401.78;;;31.07;50.78
54948;BME280;41113;41.882;12.530;2023-07-09T05:19:24;101398.25;;;31.11;51.15
54948;BME280;41113;41.882;12.530;2023-07-09T05:21:49;101393.19;;;32.39;47.91
54948;BME280;41113;41.882;12.530;2023-07-09T05:24:15;101391.56;;;31.90;47.81
54948;BME280;41113;41.882;12.530;2023-07-09T05:26:40;101400.25;;;31.33;49.47
54948;BME280;41113;41.882;12.530;2023-07-09T05:29:06;101393.16;;;31.42;49.59
54948;BME280;41113;41.882;12.530;2023-07-09T05:31:32;101389.50;;;32.07;48.90
54948;BME280;41113;41.882;12.530;2023-07-09T05:33:59;101402.94;;;32.74;46.35
54948;BME280;41113;41.882;12.530;2023-07-09T05:36:26;101404.06;;;32.78;46.76
54948;BME280;41113;41.882;12.530;2023-07-09T05:38:52;101400.75;;;33.65;44.78
54948;BME280;41113;41.882;12.530;2023-07-09T05:41:17;101412.69;;;34.54;43.44
54948;BME280;41113;41.882;12.530;2023-07-09T05:43:43;101415.41;;;35.40;41.64
54948;BME280;41113;41.882;12.530;2023-07-09T05:46:10;101416.69;;;35.68;40.97
54948;BME280;41113;41.882;12.530;2023-07-09T05:48:35;101409.78;;;35.50;38.80
54948;BME280;41113;41.882;12.530;2023-07-09T05:51:01;101421.06;;;34.54;42.21
54948;BME280;41113;41.882;12.530;2023-07-09T05:53:26;101416.03;;;33.58;42.66
54948;BME280;41113;41.882;12.530;2023-07-09T05:55:55;101420.94;;;32.93;44.85
54948;BME280;41113;41.882;12.530;2023-07-09T05:58:22;101416.63;;;34.48;42.71
54948;BME280;41113;41.882;12.530;2023-07-09T06:00:51;101423.28;;;34.77;40.80
54948;BME280;41113;41.882;12.530;2023-07-09T06:03:23;101434.44;;;35.08;39.69
54948;BME280;41113;41.882;12.530;2023-07-09T06:05:49;101426.13;;;35.93;38.77
54948;BME280;41113;41.882;12.530;2023-07-09T06:08:16;101421.47;;;37.24;38.47
54948;BME280;41113;41.882;12.530;2023-07-09T06:10:50;101436.97;;;37.88;34.96
54948;BME280;41113;41.882;12.530;2023-07-09T06:13:16;101428.91;;;37.05;38.09
54948;BME280;41113;41.882;12.530;2023-07-09T06:15:43;101425.13;;;37.20;37.77
54948;BME280;41113;41.882;12.530;2023-07-09T06:18:08;101434.75;;;37.85;37.04
54948;BME280;41113;41.882;12.530;2023-07-09T06:20:34;101425.66;;;37.51;36.84
54948;BME280;41113;41.882;12.530;2023-07-09T06:22:59;101430.34;;;37.31;37.52
54948;BME280;41113;41.882;12.530;2023-07-09T06:25:25;101432.38;;;38.16;37.14
54948;BME280;41113;41.882;12.530;2023-07-09T06:27:51;101431.75;;;39.22;35.50
54948;BME280;41113;41.882;12.530;2023-07-09T06:30:16;101434.03;;;39.89;34.13
54948;BME280;41113;41.882;12.530;2023-07-09T06:32:44;101436.09;;;38.49;34.27
54948;BME280;41113;41.882;12.530;2023-07-09T06:35:09;101433.28;;;38.30;36.24
54948;BME280;41113;41.882;12.530;2023-07-09T06:37:35;101442.78;;;37.68;37.25
54948;BME280;41113;41.882;12.530;2023-07-09T06:40:00;101452.44;;;37.09;38.28
54948;BME280;41113;41.882;12.530;2023-07-09T06:42:27;101445.28;;;36.59;38.68
54948;BME280;41113;41.882;12.530;2023-07-09T06:44:52;101439.88;;;36.33;39.44
54948;BME280;41113;41.882;12.530;2023-07-09T06:47:18;101443.94;;;35.07;40.89
54948;BME280;41113;41.882;12.530;2023-07-09T06:49:43;101446.16;;;35.20;41.19
54948;BME280;41113;41.882;12.530;2023-07-09T06:52:08;101443.84;;;35.58;40.48
54948;BME280;41113;41.882;12.530;2023-07-09T06:54:34;101449.19;;;33.54;43.62
54948;BME280;41113;41.882;12.530;2023-07-09T06:56:59;101457.69;;;32.95;45.30
54948;BME280;41113;41.882;12.530;2023-07-09T06:59:24;101446.28;;;33.39;43.92
54948;BME280;41113;41.882;12.530;2023-07-09T07:01:50;101444.63;;;33.95;42.71
54948;BME280;41113;41.882;12.530;2023-07-09T07:04:15;101443.72;;;32.90;45.31
54948;BME280;41113;41.882;12.530;2023-07-09T07:06:40;101443.31;;;33.14;44.37
54948;BME280;41113;41.882;12.530;2023-07-09T07:09:06;101441.66;;;33.55;43.79
54948;BME280;41113;41.882;12.530;2023-07-09T07:11:31;101441.69;;;33.60;43.47
54948;BME280;41113;41.882;12.530;2023-07-09T07:13:58;101442.38;;;32.66;45.68
54948;BME280;41113;41.882;12.530;2023-07-09T07:16:23;101443.03;;;32.78;45.23
54948;BME280;41113;41.882;12.530;2023-07-09T07:18:49;101443.44;;;32.60;46.50
54948;BME280;41113;41.882;12.530;2023-07-09T07:21:15;101447.38;;;32.37;46.79
54948;BME280;41113;41.882;12.530;2023-07-09T07:23:40;101432.88;;;32.62;46.31
54948;BME280;41113;41.882;12.530;2023-07-09T07:26:06;101437.31;;;32.58;46.61
54948;BME280;41113;41.882;12.530;2023-07-09T07:28:35;101441.03;;;33.05;45.61
54948;BME280;41113;41.882;12.530;2023-07-09T07:31:02;101433.31;;;33.55;44.23
54948;BME280;41113;41.882;12.530;2023-07-09T07:33:28;101428.66;;;33.81;44.06
54948;BME280;41113;41.882;12.530;2023-07-09T07:35:53;101434.81;;;32.88;46.31
54948;BME280;41113;41.882;12.530;2023-07-09T07:38:19;101434.34;;;33.01;46.12
54948;BME280;41113;41.882;12.530;2023-07-09T07:40:44;101435.22;;;33.12;45.39
54948;BME280;41113;41.882;12.530;2023-07-09T07:43:10;101433.81;;;32.72;45.98
54948;BME280;41113;41.882;12.530;2023-07-09T07:45:35;101428.84;;;33.11;45.21
54948;BME280;41113;41.882;12.530;2023-07-09T07:48:00;101434.41;;;33.11;45.02
54948;BME280;41113;41.882;12.530;2023-07-09T07:50:26;101433.47;;;33.38;44.76
54948;BME280;41113;41.882;12.530;2023-07-09T07:52:51;101425.28;;;33.73;44.04
54948;BME280;41113;41.882;12.530;2023-07-09T07:55:16;101426.91;;;33.59;44.27
54948;BME280;41113;41.882;12.530;2023-07-09T07:57:43;101422.72;;;33.15;45.16
54948;BME280;41113;41.882;12.530;2023-07-09T08:00:09;101424.91;;;32.75;46.17
54948;BME280;41113;41.882;12.530;2023-07-09T08:02:35;101424.72;;;32.82;46.04
54948;BME280;41113;41.882;12.530;2023-07-09T08:05:00;101427.00;;;33.27;44.94
54948;BME280;41113;41.882;12.530;2023-07-09T08:07:26;101428.16;;;33.31;45.60
54948;BME280;41113;41.882;12.530;2023-07-09T08:09:51;101423.13;;;32.91;45.92
54948;BME280;41113;41.882;12.530;2023-07-09T08:12:16;101422.13;;;33.07;45.20
54948;BME280;41113;41.882;12.530;2023-07-09T08:14:44;101417.13;;;33.52;44.51
54948;BME280;41113;41.882;12.530;2023-07-09T08:17:09;101412.47;;;33.72;43.94
54948;BME280;41113;41.882;12.530;2023-07-09T08:19:46;101413.53;;;33.56;43.99
54948;BME280;41113;41.882;12.530;2023-07-09T08:22:13;101412.03;;;33.38;44.54
54948;BME280;41113;41.882;12.530;2023-07-09T08:24:39;101411.66;;;33.82;43.35
54948;BME280;41113;41.882;12.530;2023-07-09T08:27:08;101404.69;;;33.80;43.20
54948;BME280;41113;41.882;12.530;2023-07-09T08:29:34;101400.22;;;33.79;43.94
54948;BME280;41113;41.882;12.530;2023-07-09T08:31:59;101403.16;;;34.19;42.74
54948;BME280;41113;41.882;12.530;2023-07-09T08:34:25;101406.75;;;34.10;43.24
54948;BME280;41113;41.882;12.530;2023-07-09T08:36:50;101394.44;;;33.90;43.71
54948;BME280;41113;41.882;12.530;2023-07-09T08:39:16;101407.81;;;33.83;43.92
54948;BME280;41113;41.882;12.530;2023-07-09T08:41:48;101406.34;;;33.76;44.02
54948;BME280;41113;41.882;12.530;2023-07-09T08:46:59;101404.09;;;33.67;44.22
54948;BME280;41113;41.882;12.530;2023-07-09T08:49:37;101408.00;;;33.66;44.86
54948;BME280;41113;41.882;12.530;2023-07-09T08:52:12;101408.69;;;33.99;43.34
54948;BME280;41113;41.882;12.530;2023-07-09T08:54:40;101400.31;;;33.94;43.70
54948;BME280;41113;41.882;12.530;2023-07-09T08:57:27;101396.44;;;34.05;41.98
54948;BME280;41113;41.882;12.530;2023-07-09T09:02:56;101414.88;;;34.21;41.17
54948;BME280;41113;41.882;12.530;2023-07-09T09:05:24;101413.25;;;34.41;42.26
54948;BME280;41113;41.882;12.530;2023-07-09T09:08:17;101410.19;;;34.57;41.04
54948;BME280;41113;41.882;12.530;2023-07-09T09:13:41;101413.53;;;34.54;41.84
54948;BME280;41113;41.882;12.530;2023-07-09T09:16:25;101415.47;;;34.39;40.49
54948;BME280;41113;41.882;12.530;2023-07-09T09:18:55;101411.84;;;34.38;41.57
54948;BME280;41113;41.882;12.530;2023-07-09T09:21:23;101409.84;;;34.28;41.98
54948;BME280;41113;41.882;12.530;2023-07-09T09:23:52;101407.84;;;34.03;42.26
54948;BME280;41113;41.882;12.530;2023-07-09T09:26:24;101409.56;;;34.25;41.50
54948;BME280;41113;41.882;12.530;2023-07-09T09:28:52;101408.53;;;34.51;41.44
54948;BME280;41113;41.882;12.530;2023-07-09T09:31:18;101420.50;;;34.52;41.51
54948;BME280;41113;41.882;12.530;2023-07-09T09:33:46;101411.25;;;34.26;41.69
54948;BME280;41113;41.882;12.530;2023-07-09T09:36:23;101404.22;;;34.03;41.57
54948;BME280;41113;41.882;12.530;2023-07-09T09:38:49;101407.56;;;34.00;42.36
54948;BME280;41113;41.882;12.530;2023-07-09T09:41:24;101408.19;;;34.17;41.79
54948;BME280;41113;41.882;12.530;2023-07-09T09:43:53;101402.63;;;34.38;41.82
54948;BME280;41113;41.882;12.530;2023-07-09T09:46:21;101400.69;;;34.69;41.33
54948;BME280;41113;41.882;12.530;2023-07-09T09:48:48;101402.91;;;34.72;41.10
54948;BME280;41113;41.882;12.530;2023-07-09T09:51:13;101405.44;;;34.53;41.33
54948;BME280;41113;41.882;12.530;2023-07-09T09:56:29;101404.63;;;34.52;41.09
54948;BME280;41113;41.882;12.530;2023-07-09T09:58:56;101402.66;;;34.53;41.33
54948;BME280;41113;41.882;12.530;2023-07-09T10:01:28;101402.03;;;34.20;41.40
54948;BME280;41113;41.882;12.530;2023-07-09T10:03:56;101402.59;;;34.27;41.50
54948;BME280;41113;41.882;12.530;2023-07-09T10:06:43;101397.31;;;34.31;41.19
54948;BME280;41113;41.882;12.530;2023-07-09T10:17:53;101390.56;;;34.12;40.71
54948;BME280;41113;41.882;12.530;2023-07-09T10:20:47;101385.56;;;34.03;40.27
54948;BME280;41113;41.882;12.530;2023-07-09T10:23:29;101386.44;;;34.24;40.97
54948;BME280;41113;41.882;12.530;2023-07-09T10:26:05;101379.75;;;34.41;40.79
54948;BME280;41113;41.882;12.530;2023-07-09T10:34:49;101385.88;;;34.78;39.91
54948;BME280;41113;41.882;12.530;2023-07-09T10:37:05;101395.94;;;34.64;40.13
54948;BME280;41113;41.882;12.530;2023-07-09T10:39:36;101389.81;;;34.67;40.44
54948;BME280;41113;41.882;12.530;2023-07-09T10:42:03;101386.19;;;34.67;40.59
54948;BME280;41113;41.882;12.530;2023-07-09T10:44:34;101387.03;;;34.62;40.11
54948;BME280;41113;41.882;12.530;2023-07-09T10:47:13;101384.25;;;34.62;39.89
54948;BME280;41113;41.882;12.530;2023-07-09T10:49:43;101387.84;;;34.78;40.25
54948;BME280;41113;41.882;12.530;2023-07-09T10:52:30;101386.75;;;34.89;39.09
54948;BME280;41113;41.882;12.530;2023-07-09T10:55:04;101392.06;;;34.90;39.92
54948;BME280;41113;41.882;12.530;2023-07-09T10:58:04;101386.75;;;34.89;39.39
54948;BME280;41113;41.882;12.530;2023-07-09T11:00:35;101378.09;;;34.90;39.17
54948;BME280;41113;41.882;12.530;2023-07-09T11:03:43;101377.81;;;34.87;38.61
54948;BME280;41113;41.882;12.530;2023-07-09T11:06:20;101375.56;;;34.94;39.31
54948;BME280;41113;41.882;12.530;2023-07-09T11:08:50;101380.31;;;34.99;39.33
54948;BME280;41113;41.882;12.530;2023-07-09T11:11:38;101371.91;;;35.14;38.08
54948;BME280;41113;41.882;12.530;2023-07-09T11:16:53;101364.59;;;35.23;39.11
54948;BME280;41113;41.882;12.530;2023-07-09T11:19:20;101362.66;;;35.23;38.80
54948;BME280;41113;41.882;12.530;2023-07-09T11:24:52;101362.94;;;35.22;38.54
54948;BME280;41113;41.882;12.530;2023-07-09T11:27:27;101349.00;;;35.07;38.27
54948;BME280;41113;41.882;12.530;2023-07-09T11:30:20;101351.25;;;35.05;38.28
54948;BME280;41113;41.882;12.530;2023-07-09T11:32:46;101352.63;;;35.12;38.11
54948;BME280;41113;41.882;12.530;2023-07-09T11:35:23;101347.91;;;35.03;38.00
54948;BME280;41113;41.882;12.530;2023-07-09T11:37:48;101344.53;;;35.11;38.92
54948;BME280;41113;41.882;12.530;2023-07-09T11:40:15;101343.94;;;35.24;38.51
54948;BME280;41113;41.882;12.530;2023-07-09T11:42:52;101349.28;;;35.15;37.70
54948;BME280;41113;41.882;12.530;2023-07-09T11:45:28;101339.50;;;35.18;37.02
54948;BME280;41113;41.882;12.530;2023-07-09T11:48:02;101342.25;;;35.23;36.10
54948;BME280;41113;41.882;12.530;2023-07-09T11:50:40;101339.44;;;35.28;36.72
54948;BME280;41113;41.882;12.530;2023-07-09T11:55:54;101338.00;;;35.41;36.72
54948;BME280;41113;41.882;12.530;2023-07-09T11:58:19;101342.75;;;35.40;36.98
54948;BME280;41113;41.882;12.530;2023-07-09T12:00:47;101342.25;;;35.33;36.16
54948;BME280;41113;41.882;12.530;2023-07-09T12:06:37;101333.28;;;35.31;36.83
54948;BME280;41113;41.882;12.530;2023-07-09T12:09:05;101326.59;;;35.37;37.18
54948;BME280;41113;41.882;12.530;2023-07-09T12:11:31;101333.00;;;35.38;37.04
54948;BME280;41113;41.882;12.530;2023-07-09T12:14:12;101331.34;;;35.37;35.92
54948;BME280;41113;41.882;12.530;2023-07-09T12:16:40;101329.09;;;35.39;36.52
54948;BME280;41113;41.882;12.530;2023-07-09T12:19:06;101324.59;;;35.43;36.40
54948;BME280;41113;41.882;12.530;2023-07-09T12:21:35;101320.75;;;35.34;35.20
54948;BME280;41113;41.882;12.530;2023-07-09T12:24:02;101319.91;;;35.23;36.10
54948;BME280;41113;41.882;12.530;2023-07-09T12:26:30;101319.34;;;35.26;36.30
54948;BME280;41113;41.882;12.530;2023-07-09T12:28:57;101320.41;;;35.40;36.82
54948;BME280;41113;41.882;12.530;2023-07-09T12:31:30;101314.25;;;35.43;37.29
54948;BME280;41113;41.882;12.530;2023-07-09T12:33:57;101315.66;;;35.46;37.67
54948;BME280;41113;41.882;12.530;2023-07-09T12:36:27;101319.56;;;35.45;37.59
54948;BME280;41113;41.882;12.530;2023-07-09T12:38:56;101319.00;;;35.43;38.06
54948;BME280;41113;41.882;12.530;2023-07-09T12:41:28;101314.53;;;35.47;37.88
54948;BME280;41113;41.882;12.530;2023-07-09T12:43:54;101317.34;;;35.42;38.08
54948;BME280;41113;41.882;12.530;2023-07-09T12:46:21;101321.53;;;35.39;38.46
54948;BME280;41113;41.882;12.530;2023-07-09T12:48:48;101319.84;;;35.43;38.22
54948;BME280;41113;41.882;12.530;2023-07-09T12:51:16;101316.75;;;35.45;38.33
54948;BME280;41113;41.882;12.530;2023-07-09T12:53:43;101315.38;;;35.42;38.37
54948;BME280;41113;41.882;12.530;2023-07-09T12:56:12;101324.66;;;35.22;37.98
54948;BME280;41113;41.882;12.530;2023-07-09T12:58:38;101315.44;;;35.27;38.50
54948;BME280;41113;41.882;12.530;2023-07-09T13:01:12;101321.59;;;35.24;38.63
54948;BME280;41113;41.882;12.530;2023-07-09T13:03:39;101317.16;;;35.18;38.66
54948;BME280;41113;41.882;12.530;2023-07-09T13:06:26;101318.28;;;35.17;38.27
54948;BME280;41113;41.882;12.530;2023-07-09T13:08:55;101313.00;;;35.05;38.30
54948;BME280;41113;41.882;12.530;2023-07-09T13:11:21;101309.41;;;35.00;38.29
54948;BME280;41113;41.882;12.530;2023-07-09T13:13:57;101303.75;;;35.10;38.43
54948;BME280;41113;41.882;12.530;2023-07-09T13:16:24;101307.94;;;35.12;38.62
54948;BME280;41113;41.882;12.530;2023-07-09T13:18:50;101299.84;;;35.11;38.74
54948;BME280;41113;41.882;12.530;2023-07-09T13:21:18;101301.50;;;35.12;38.48
54948;BME280;41113;41.882;12.530;2023-07-09T13:23:44;101297.09;;;35.06;38.93
54948;BME280;41113;41.882;12.530;2023-07-09T13:26:09;101289.25;;;35.08;38.64
54948;BME280;41113;41.882;12.530;2023-07-09T13:28:35;101283.66;;;35.08;38.54
54948;BME280;41113;41.882;12.530;2023-07-09T13:31:11;101289.84;;;35.00;38.17
54948;BME280;41113;41.882;12.530;2023-07-09T13:33:38;101289.81;;;35.05;38.58